Time;durP1;ratioP1;P1;durP2;ratioP2;P2;SDS_P1;SDS_P2;PMS_P1;PMS_P2;Temp;Humidity;BMP_temperature;BMP_pressure;BME280_temperature;BME280_humidity;BME280_pressure;Samples;Min_cycle;Max_cycle;Signal;HPM_P1;HPM_P2
2023/04/30 00:01:25;;;;;;;7.13;5.88;;;;;;;9.05;80.30;102398.56;5077453;28;20041;-76
2023/04/30 00:03:50;;;;;;;7.22;5.68;;;;;;;9.03;80.16;102390.72;5075608;28;20039;-76
2023/04/30 00:06:16;;;;;;;5.85;5.28;;;;;;;9.03;80.09;102390.72;5077898;28;20031;-76
2023/04/30 00:08:41;;;;;;;7.63;5.80;;;;;;;9.03;80.23;102395.09;5077152;28;20343;-76
2023/04/30 00:11:06;;;;;;;6.10;5.50;;;;;;;9.01;79.97;102392.50;5076741;28;20255;-76
2023/04/30 00:13:32;;;;;;;5.78;5.25;;;;;;;9.00;79.82;102389.91;5076786;28;20398;-76
2023/04/30 00:15:57;;;;;;;6.13;5.03;;;;;;;8.99;79.66;102388.19;5075970;28;20063;-76
2023/04/30 00:18:23;;;;;;;5.70;5.30;;;;;;;8.97;79.46;102392.56;5077033;28;20051;-76
2023/04/30 00:20:50;;;;;;;7.22;6.00;;;;;;;8.96;79.58;102380.34;5068428;28;20227;-76
2023/04/30 00:23:16;;;;;;;7.20;5.45;;;;;;;8.94;79.39;102385.59;5068765;28;20258;-76
2023/04/30 00:25:41;;;;;;;4.97;4.57;;;;;;;8.92;79.41;102386.50;5072378;28;20036;-76
2023/04/30 00:28:06;;;;;;;7.10;5.65;;;;;;;8.90;79.45;102388.25;5069291;28;20043;-76
2023/04/30 00:30:32;;;;;;;5.93;5.40;;;;;;;8.88;79.35;102377.81;5069225;28;20451;-76
2023/04/30 00:32:57;;;;;;;6.28;5.78;;;;;;;8.86;79.47;102383.91;5047465;28;20115;-76
2023/04/30 00:35:23;;;;;;;6.63;5.93;;;;;;;8.84;79.53;102383.94;5068748;28;20044;-76
2023/04/30 00:37:48;;;;;;;7.75;5.75;;;;;;;8.82;79.62;102391.81;5066450;28;20043;-76
2023/04/30 00:40:14;;;;;;;6.03;5.53;;;;;;;8.80;79.38;102385.75;5076911;28;20125;-76
2023/04/30 00:42:39;;;;;;;5.95;5.45;;;;;;;8.79;79.51;102388.34;5079177;28;20047;-76
2023/04/30 00:45:05;;;;;;;6.07;5.57;;;;;;;8.78;79.40;102394.44;5078631;28;20040;-76
2023/04/30 00:47:30;;;;;;;5.45;4.95;;;;;;;8.76;79.34;102396.22;5073089;28;20119;-76
2023/04/30 00:49:57;;;;;;;6.68;5.38;;;;;;;8.75;79.71;102391.84;5065836;28;20051;-76
2023/04/30 00:52:22;;;;;;;6.60;5.47;;;;;;;8.71;79.47;102401.47;5079235;28;20320;-76
2023/04/30 00:54:49;;;;;;;6.55;5.82;;;;;;;8.70;79.64;102394.53;5075759;28;20079;-76
2023/04/30 00:57:14;;;;;;;6.28;5.65;;;;;;;8.68;79.54;102398.88;5078873;28;20044;-76
2023/04/30 00:59:41;;;;;;;6.43;5.80;;;;;;;8.67;79.70;102393.69;5076279;28;20265;-76
2023/04/30 01:04:42;;;;;;;5.95;5.43;;;;;;;8.63;80.14;102396.31;5246713;22;20065;-76
2023/04/30 01:07:07;;;;;;;6.38;5.82;;;;;;;8.63;80.10;102396.31;5035339;28;20041;-76
2023/04/30 01:09:33;;;;;;;6.20;5.57;;;;;;;8.62;79.92;102398.91;5019196;28;20045;-76
2023/04/30 01:12:08;;;;;;;7.15;5.60;;;;;;;8.61;79.95;102408.50;5031027;28;20034;-76
2023/04/30 01:14:43;;;;;;;7.20;6.50;;;;;;;8.60;80.21;102408.50;5017544;28;20324;-76
2023/04/30 01:17:20;;;;;;;6.28;5.70;;;;;;;8.59;80.36;102415.50;5018725;28;20057;-76
2023/04/30 01:19:45;;;;;;;6.53;5.88;;;;;;;8.58;80.30;102413.75;5017574;28;20119;-76
2023/04/30 01:22:26;;;;;;;6.00;5.50;;;;;;;8.57;80.54;102419.84;5033930;28;20045;-76
2023/04/30 01:25:25;;;;;;;7.80;5.65;;;;;;;8.56;80.33;102410.28;5015860;28;20100;-76
2023/04/30 01:28:08;;;;;;;5.85;5.35;;;;;;;8.55;80.35;102415.50;4998466;28;20092;-76
2023/04/30 01:30:34;;;;;;;5.82;5.32;;;;;;;8.53;80.49;102417.25;4998862;28;20052;-76
2023/04/30 01:33:00;;;;;;;6.53;5.75;;;;;;;8.52;80.36;102415.56;5009833;28;20052;-76
2023/04/30 01:35:42;;;;;;;6.35;5.75;;;;;;;8.51;80.27;102419.03;4999177;28;20046;-76
2023/04/30 01:38:43;;;;;;;6.60;5.78;;;;;;;8.48;80.47;102421.66;5011836;28;20026;-76
2023/04/30 01:41:40;;;;;;;6.57;5.75;;;;;;;8.45;80.43;102419.94;4997267;28;20038;-76
2023/04/30 01:44:44;;;;;;;6.95;6.05;;;;;;;8.40;80.21;102409.50;5003872;28;20034;-76
2023/04/30 01:47:20;;;;;;;6.57;5.97;;;;;;;8.39;80.45;102412.97;5015259;28;20283;-76
2023/04/30 01:50:36;;;;;;;6.35;5.75;;;;;;;8.36;80.39;102405.16;5020987;28;20065;-76
2023/04/30 01:53:06;;;;;;;6.47;5.95;;;;;;;8.36;80.36;102412.13;4989874;28;20103;-76
2023/04/30 01:55:43;;;;;;;6.97;6.28;;;;;;;8.34;80.48;102406.06;5000818;28;20046;-76
2023/04/30 01:58:14;;;;;;;7.15;5.88;;;;;;;8.32;80.77;102400.84;5009442;28;20041;-76
2023/04/30 02:00:39;;;;;;;6.25;5.75;;;;;;;8.31;80.56;102398.25;5000026;28;20109;-76
2023/04/30 02:03:05;;;;;;;7.07;6.25;;;;;;;8.30;80.66;102405.22;5003823;28;20359;-76
2023/04/30 02:05:31;;;;;;;6.28;5.78;;;;;;;8.28;80.59;102393.91;5017821;28;20057;-76
2023/04/30 02:07:56;;;;;;;6.53;5.93;;;;;;;8.26;80.84;102396.53;5017911;28;20045;-76
2023/04/30 02:10:23;;;;;;;7.38;6.63;;;;;;;8.26;80.74;102398.28;5017841;28;20303;-76
2023/04/30 02:12:49;;;;;;;6.65;6.05;;;;;;;8.24;80.73;102397.41;5018081;28;20045;-76
2023/04/30 02:15:14;;;;;;;8.45;6.88;;;;;;;8.23;80.63;102400.91;5024699;28;20435;-76
2023/04/30 02:17:40;;;;;;;8.38;7.18;;;;;;;8.20;80.73;102396.56;5017345;28;20057;-76
2023/04/30 02:20:06;;;;;;;6.90;6.30;;;;;;;8.18;80.67;102400.91;5016911;28;20350;-76
2023/04/30 02:22:32;;;;;;;7.57;6.82;;;;;;;8.16;81.01;102394.84;5016097;28;20101;-76
2023/04/30 02:24:57;;;;;;;7.03;6.18;;;;;;;8.16;80.87;102399.19;5017717;28;20072;-76
2023/04/30 02:27:24;;;;;;;6.63;6.03;;;;;;;8.13;80.68;102392.28;5016324;28;20243;-76
2023/04/30 02:29:50;;;;;;;10.80;9.27;;;;;;;8.10;80.99;102402.72;5017444;28;20030;-76
2023/04/30 02:32:16;;;;;;;8.38;7.68;;;;;;;8.07;81.14;102400.97;5017203;28;20046;-76
2023/04/30 02:34:41;;;;;;;7.43;6.82;;;;;;;8.06;81.39;102401.00;5015518;28;20244;-76
2023/04/30 02:37:07;;;;;;;7.63;6.93;;;;;;;8.06;81.28;102401.00;5017233;28;20111;-76
2023/04/30 02:39:33;;;;;;;7.57;6.72;;;;;;;8.05;81.42;102399.25;5017829;28;20033;-74
2023/04/30 02:41:58;;;;;;;7.60;6.90;;;;;;;8.04;81.33;102402.72;5016454;28;20044;-74
2023/04/30 02:44:24;;;;;;;7.13;6.53;;;;;;;8.03;81.48;102395.78;5017361;28;20193;-74
2023/04/30 02:46:49;;;;;;;7.65;6.90;;;;;;;8.01;81.51;102389.72;5017268;28;20041;-74
2023/04/30 02:49:15;;;;;;;6.85;6.22;;;;;;;8.00;81.50;102390.59;5017396;28;20076;-74
2023/04/30 02:52:02;;;;;;;7.05;6.45;;;;;;;7.99;81.61;102391.47;5000172;28;20037;-74
2023/04/30 02:54:28;;;;;;;9.55;7.07;;;;;;;7.98;81.63;102392.34;5006734;28;20065;-73
2023/04/30 02:56:53;;;;;;;7.80;6.38;;;;;;;7.96;81.36;102388.88;5004016;28;20030;-73
2023/04/30 02:59:19;;;;;;;7.57;6.93;;;;;;;7.96;81.33;102400.16;5022690;28;20049;-73
2023/04/30 03:01:44;;;;;;;7.45;6.32;;;;;;;7.95;81.33;102392.34;5024804;28;20102;-73
2023/04/30 03:04:09;;;;;;;6.53;5.95;;;;;;;7.94;81.34;102396.69;5007353;28;20066;-73
2023/04/30 03:06:35;;;;;;;6.70;6.10;;;;;;;7.93;81.62;102391.47;5022518;28;20324;-73
2023/04/30 03:09:00;;;;;;;6.75;6.15;;;;;;;7.91;81.49;102398.47;5024495;28;20054;-73
2023/04/30 03:11:26;;;;;;;6.95;6.30;;;;;;;7.91;81.50;102393.25;5025456;28;20304;-73
2023/04/30 03:13:52;;;;;;;6.10;5.57;;;;;;;7.88;81.42;102395.00;5025483;28;20072;-73
2023/04/30 03:16:18;;;;;;;10.00;7.10;;;;;;;7.87;81.48;102392.38;5024973;28;20096;-73
2023/04/30 03:18:45;;;;;;;8.07;6.20;;;;;;;7.85;81.49;102408.03;5023663;28;20037;-73
2023/04/30 03:21:10;;;;;;;7.97;7.18;;;;;;;7.84;81.97;102408.94;5025495;28;20046;-73
2023/04/30 03:23:36;;;;;;;7.90;7.10;;;;;;;7.83;81.85;102412.41;5025279;28;20348;-73
2023/04/30 03:26:01;;;;;;;7.18;6.57;;;;;;;7.83;82.14;102414.16;5025461;28;20233;-73
2023/04/30 03:28:26;;;;;;;6.78;6.18;;;;;;;7.82;81.98;102399.34;5024947;28;20067;-73
2023/04/30 03:30:52;;;;;;;7.00;6.38;;;;;;;7.81;82.06;102408.94;5025643;28;20129;-73
2023/04/30 03:33:17;;;;;;;6.93;6.18;;;;;;;7.80;81.93;102398.50;5025131;28;20049;-73
2023/04/30 03:35:43;;;;;;;6.47;5.88;;;;;;;7.78;81.79;102395.88;5025430;28;20310;-73
2023/04/30 03:38:08;;;;;;;6.22;5.63;;;;;;;7.77;82.15;102395.94;5023302;28;20442;-73
2023/04/30 03:40:34;;;;;;;6.65;6.05;;;;;;;7.76;81.79;102395.03;5004444;28;20365;-73
2023/04/30 03:42:59;;;;;;;7.85;6.28;;;;;;;7.75;81.98;102395.03;5006315;28;20037;-73
2023/04/30 03:45:25;;;;;;;7.22;6.50;;;;;;;7.74;81.96;102404.63;5007397;28;20037;-73
2023/04/30 03:47:51;;;;;;;6.63;5.97;;;;;;;7.71;82.03;102399.41;5025595;28;20061;-73
2023/04/30 03:50:17;;;;;;;7.07;6.47;;;;;;;7.71;81.81;102402.00;5024578;28;20406;-73
2023/04/30 03:52:43;;;;;;;7.05;6.45;;;;;;;7.69;81.96;102402.03;5024456;28;20058;-73
2023/04/30 03:55:09;;;;;;;8.23;6.88;;;;;;;7.68;81.93;102396.81;5025525;28;20048;-73
2023/04/30 03:57:34;;;;;;;7.68;6.47;;;;;;;7.66;81.98;102393.34;5025031;28;20087;-73
2023/04/30 04:00:00;;;;;;;7.70;6.95;;;;;;;7.64;82.29;102384.66;5024535;28;20348;-73
2023/04/30 04:02:26;;;;;;;7.50;6.75;;;;;;;7.65;82.15;102386.41;5007965;28;20040;-73
2023/04/30 04:04:51;;;;;;;7.75;6.68;;;;;;;7.65;82.20;102383.78;5023581;28;20568;-73
2023/04/30 04:07:17;;;;;;;7.43;6.82;;;;;;;7.64;82.45;102382.94;5024712;28;20092;-73
2023/04/30 04:09:43;;;;;;;6.70;6.10;;;;;;;7.66;82.43;102381.19;5025224;28;20336;-73
2023/04/30 04:12:09;;;;;;;6.70;5.68;;;;;;;7.64;82.54;102380.31;5023253;28;20049;-73
2023/04/30 04:14:34;;;;;;;6.40;5.80;;;;;;;7.66;82.46;102380.31;5024710;28;20102;-73
2023/04/30 04:17:00;;;;;;;6.47;5.75;;;;;;;7.64;82.35;102372.50;5007569;28;20052;-73
2023/04/30 04:19:26;;;;;;;6.05;5.55;;;;;;;7.64;82.39;102376.81;5025388;28;20046;-73
2023/04/30 04:21:52;;;;;;;5.93;5.43;;;;;;;7.63;82.44;102381.19;5025244;28;20666;-73
2023/04/30 04:24:17;;;;;;;5.85;5.10;;;;;;;7.64;82.34;102385.53;5024115;28;20034;-73
2023/04/30 04:26:43;;;;;;;5.95;5.38;;;;;;;7.63;82.43;102382.94;5024419;28;20061;-73
2023/04/30 04:29:09;;;;;;;5.63;5.13;;;;;;;7.61;82.49;102385.53;5023587;28;20116;-73
2023/04/30 04:31:34;;;;;;;7.10;5.50;;;;;;;7.62;82.76;102386.41;5024368;28;20044;-73
2023/04/30 04:34:02;;;;;;;6.10;5.50;;;;;;;7.64;82.87;102387.25;5024759;28;20248;-73
2023/04/30 04:36:27;;;;;;;5.53;5.03;;;;;;;7.65;82.89;102386.41;5024285;28;20057;-73
2023/04/30 04:39:00;;;;;;;6.75;5.22;;;;;;;7.65;83.02;102383.78;5024264;28;20045;-73
2023/04/30 04:41:27;;;;;;;7.20;6.35;;;;;;;7.65;83.04;102389.84;5023241;28;20040;-73
2023/04/30 04:43:52;;;;;;;8.65;6.65;;;;;;;7.65;83.49;102389.84;5024404;28;20037;-73
2023/04/30 04:46:19;;;;;;;7.20;6.57;;;;;;;7.65;83.73;102397.69;5022783;28;20133;-73
2023/04/30 04:48:45;;;;;;;7.05;6.35;;;;;;;7.65;83.87;102400.28;5024853;28;20351;-73
2023/04/30 04:51:11;;;;;;;6.97;6.28;;;;;;;7.66;84.00;102401.19;5023910;28;20048;-73
2023/04/30 04:53:37;;;;;;;7.30;6.57;;;;;;;7.67;83.85;102405.50;5024570;28;20236;-73
2023/04/30 04:56:02;;;;;;;6.63;6.07;;;;;;;7.68;84.08;102409.88;5024292;28;20061;-73
2023/04/30 04:58:28;;;;;;;8.55;6.38;;;;;;;7.68;83.98;102405.50;5023109;28;20045;-73
2023/04/30 05:00:53;;;;;;;7.22;6.00;;;;;;;7.70;83.98;102408.13;5023059;28;20046;-73
2023/04/30 05:03:19;;;;;;;6.38;5.78;;;;;;;7.69;84.33;102404.66;5023992;28;20061;-73
2023/04/30 05:05:45;;;;;;;6.35;5.75;;;;;;;7.72;84.33;102405.50;5023779;28;20038;-73
2023/04/30 05:08:11;;;;;;;4.68;4.28;;;;;;;7.73;84.17;102405.50;5003455;28;20060;-73
2023/04/30 05:10:36;;;;;;;7.65;6.38;;;;;;;7.76;84.41;102409.81;5022541;28;20069;-75
2023/04/30 05:13:02;;;;;;;6.30;5.75;;;;;;;7.76;84.71;102408.06;5023699;28;20084;-73
2023/04/30 05:15:27;;;;;;;8.00;6.22;;;;;;;7.76;84.64;102404.59;5024264;28;20045;-73
2023/04/30 05:17:53;;;;;;;7.53;6.18;;;;;;;7.78;84.86;102408.94;5005586;28;20332;-73
2023/04/30 05:20:18;;;;;;;8.38;6.72;;;;;;;7.80;84.85;102408.94;5023829;28;20390;-73
2023/04/30 05:22:43;;;;;;;7.13;6.45;;;;;;;7.81;85.00;102406.31;5021994;28;20385;-73
2023/04/30 05:25:09;;;;;;;6.82;5.97;;;;;;;7.82;85.35;102412.41;5023584;28;20095;-73
2023/04/30 05:27:35;;;;;;;6.65;5.72;;;;;;;7.83;85.30;102408.94;5023052;28;20225;-73
2023/04/30 05:30:00;;;;;;;5.75;5.25;;;;;;;7.83;85.46;102404.56;5023422;28;20068;-73
2023/04/30 05:32:26;;;;;;;5.30;4.80;;;;;;;7.86;85.21;102406.31;5021364;28;20049;-73
2023/04/30 05:34:52;;;;;;;5.82;5.32;;;;;;;7.85;85.30;102402.81;5023388;28;20041;-73
2023/04/30 05:37:19;;;;;;;6.57;5.80;;;;;;;7.89;85.17;102406.28;5023041;28;20033;-73
2023/04/30 05:39:45;;;;;;;7.72;6.93;;;;;;;7.91;85.43;102401.06;5021409;28;20323;-73
2023/04/30 05:42:10;;;;;;;7.68;6.43;;;;;;;7.89;86.76;102406.28;5022532;28;20037;-73
2023/04/30 05:44:36;;;;;;;6.80;6.20;;;;;;;7.90;87.24;102407.16;5022524;28;20046;-73
2023/04/30 05:47:01;;;;;;;8.00;7.03;;;;;;;7.87;87.41;102414.09;5022560;28;20288;-73
2023/04/30 05:49:27;;;;;;;8.27;6.85;;;;;;;7.87;87.95;102416.72;5023907;28;20045;-73
2023/04/30 05:51:52;;;;;;;7.20;6.50;;;;;;;7.87;88.84;102414.09;5022628;28;20232;-73
2023/04/30 05:54:17;;;;;;;7.70;6.70;;;;;;;7.87;88.98;102411.50;5022707;28;20069;-73
2023/04/30 05:56:43;;;;;;;6.93;6.10;;;;;;;7.87;89.05;102408.91;5021455;28;20109;-73
2023/04/30 05:59:08;;;;;;;6.95;6.25;;;;;;;7.90;89.21;102407.16;5019928;28;20045;-73
2023/04/30 06:01:34;;;;;;;7.00;6.30;;;;;;;7.92;89.45;102398.44;5019856;28;20356;-73
2023/04/30 06:04:00;;;;;;;6.15;5.47;;;;;;;7.94;89.51;102404.53;5019977;28;20111;-73
2023/04/30 06:06:26;;;;;;;6.55;5.78;;;;;;;7.97;89.37;102396.69;5020350;28;20112;-73
2023/04/30 06:08:52;;;;;;;6.32;5.60;;;;;;;8.00;89.29;102406.22;5019568;28;20037;-73
2023/04/30 06:11:17;;;;;;;7.90;7.03;;;;;;;8.03;89.21;102409.69;5021715;28;20340;-73
2023/04/30 06:13:43;;;;;;;10.27;7.20;;;;;;;8.04;89.88;102408.84;5021003;28;20072;-73
2023/04/30 06:16:08;;;;;;;7.88;7.05;;;;;;;8.07;90.17;102408.78;5021442;28;20068;-73
2023/04/30 06:18:34;;;;;;;7.78;6.80;;;;;;;8.08;90.19;102410.53;5020012;28;20105;-73
2023/04/30 06:20:59;;;;;;;9.75;7.32;;;;;;;8.11;89.78;102417.47;5021563;28;20044;-73
2023/04/30 06:23:25;;;;;;;10.35;6.50;;;;;;;8.12;89.75;102413.16;5020808;28;20041;-73
2023/04/30 06:25:50;;;;;;;8.05;6.07;;;;;;;8.13;90.00;102407.94;5018979;28;20220;-73
2023/04/30 06:28:15;;;;;;;7.50;6.80;;;;;;;8.16;90.07;102413.09;5020488;28;20049;-73
2023/04/30 06:30:41;;;;;;;6.70;5.90;;;;;;;8.19;89.92;102407.88;5020366;28;20037;-73
2023/04/30 06:33:06;;;;;;;9.63;7.45;;;;;;;8.23;89.79;102409.59;5019700;28;20236;-73
2023/04/30 06:35:32;;;;;;;8.50;6.80;;;;;;;8.25;90.32;102407.84;5020869;28;20088;-73
2023/04/30 06:37:57;;;;;;;8.27;7.05;;;;;;;8.27;90.35;102408.69;5019889;28;20283;-73
2023/04/30 06:40:23;;;;;;;7.85;7.05;;;;;;;8.31;90.13;102411.28;5019426;28;20126;-73
2023/04/30 06:42:48;;;;;;;7.35;6.65;;;;;;;8.36;90.00;102417.34;5019859;28;20271;-73
2023/04/30 06:45:18;;;;;;;8.23;6.60;;;;;;;8.40;90.26;102413.84;5019121;28;20104;-73
2023/04/30 06:47:45;;;;;;;10.10;7.18;;;;;;;8.44;90.65;102407.75;5019857;28;20050;-73
2023/04/30 06:50:10;;;;;;;7.68;6.88;;;;;;;8.48;90.68;102417.31;5019485;28;20097;-73
2023/04/30 06:52:35;;;;;;;10.40;7.28;;;;;;;8.54;90.85;102417.25;5019999;28;20088;-73
2023/04/30 06:55:01;;;;;;;8.07;7.28;;;;;;;8.58;91.03;102416.34;5020286;28;20048;-73
2023/04/30 06:57:26;;;;;;;8.52;7.18;;;;;;;8.64;91.04;102421.56;5019203;28;20264;-73
2023/04/30 06:59:52;;;;;;;12.65;7.60;;;;;;;8.70;90.76;102418.03;5021416;28;20275;-73
2023/04/30 07:02:18;;;;;;;9.48;7.03;;;;;;;8.75;90.77;102412.75;5019486;28;20224;-73
2023/04/30 07:04:43;;;;;;;9.85;7.40;;;;;;;8.79;90.67;102415.34;5020135;28;20054;-73
2023/04/30 07:07:09;;;;;;;8.57;7.47;;;;;;;8.86;90.55;102423.13;5020580;28;20038;-74
2023/04/30 07:09:35;;;;;;;9.10;7.05;;;;;;;8.90;90.49;102423.09;5020537;28;20037;-73
2023/04/30 07:12:01;;;;;;;7.88;6.63;;;;;;;8.95;90.24;102425.66;5020069;28;20038;-73
2023/04/30 07:14:26;;;;;;;10.75;7.72;;;;;;;8.98;90.25;102429.09;5009582;28;20056;-73
2023/04/30 07:16:52;;;;;;;11.45;6.90;;;;;;;9.05;90.22;102429.06;5019258;28;20356;-73
2023/04/30 07:19:18;;;;;;;11.75;7.10;;;;;;;9.10;90.34;102429.91;5017553;28;20042;-73
2023/04/30 07:21:43;;;;;;;8.13;7.32;;;;;;;9.15;89.96;102430.69;5019329;28;20034;-73
2023/04/30 07:24:09;;;;;;;7.63;6.82;;;;;;;9.21;89.74;102431.50;5019735;28;20319;-73
2023/04/30 07:26:35;;;;;;;7.43;6.72;;;;;;;9.26;89.49;102434.09;5020421;28;20231;-73
2023/04/30 07:29:01;;;;;;;10.70;7.50;;;;;;;9.30;88.95;102434.94;5019679;28;20041;-74
2023/04/30 07:31:26;;;;;;;8.00;7.20;;;;;;;9.34;89.30;102431.41;5002085;28;20048;-73
2023/04/30 07:33:54;;;;;;;7.80;6.97;;;;;;;9.39;89.12;102433.09;5019846;28;20040;-73
2023/04/30 07:36:19;;;;;;;9.18;6.75;;;;;;;9.45;88.62;102428.69;5020017;28;20041;-73
2023/04/30 07:38:45;;;;;;;9.93;6.88;;;;;;;9.50;88.08;102438.22;5001858;28;20109;-73
2023/04/30 07:41:10;;;;;;;7.85;6.85;;;;;;;9.53;87.82;102439.91;5019858;28;20103;-74
2023/04/30 07:43:36;;;;;;;11.45;7.38;;;;;;;9.59;88.49;102434.63;5017457;28;20084;-73
2023/04/30 07:46:02;;;;;;;12.63;6.95;;;;;;;9.64;88.28;102431.94;5016193;28;20040;-74
2023/04/30 07:48:28;;;;;;;8.18;6.90;;;;;;;9.69;88.26;102438.00;5008399;28;20339;-73
2023/04/30 07:50:53;;;;;;;7.22;6.50;;;;;;;9.73;88.11;102439.69;5020610;28;20022;-73
2023/04/30 07:53:19;;;;;;;9.68;7.18;;;;;;;9.78;87.76;102436.13;5018573;28;20045;-73
2023/04/30 07:55:44;;;;;;;6.70;6.13;;;;;;;9.84;87.87;102437.84;5018524;28;20044;-74
2023/04/30 07:58:10;;;;;;;9.10;7.05;;;;;;;9.91;87.62;102438.59;5019125;28;20049;-74
2023/04/30 08:00:36;;;;;;;9.57;6.78;;;;;;;9.97;87.04;102435.94;5017936;28;20045;-74
2023/04/30 08:03:01;;;;;;;9.02;6.18;;;;;;;10.03;87.29;102440.22;5023825;28;20038;-74
2023/04/30 08:05:27;;;;;;;8.30;6.57;;;;;;;10.08;86.97;102435.78;5031216;28;20151;-74
2023/04/30 08:07:52;;;;;;;5.85;5.35;;;;;;;10.13;87.23;102431.34;5016010;28;20034;-74
2023/04/30 08:10:18;;;;;;;7.18;6.13;;;;;;;10.20;87.31;102435.59;5016319;28;20310;-74
2023/04/30 08:12:44;;;;;;;6.90;6.07;;;;;;;10.26;87.26;102438.16;5017400;28;20051;-74
2023/04/30 08:15:09;;;;;;;8.45;6.70;;;;;;;10.32;86.56;102438.09;5016226;28;20038;-74
2023/04/30 08:17:35;;;;;;;7.15;6.55;;;;;;;10.38;86.24;102434.53;5013965;28;20321;-74
2023/04/30 08:20:01;;;;;;;8.95;6.63;;;;;;;10.44;86.04;102426.59;5018396;28;20046;-74
2023/04/30 08:22:27;;;;;;;7.47;6.68;;;;;;;10.47;85.34;102428.28;5018173;28;20034;-74
2023/04/30 08:24:54;;;;;;;7.00;6.28;;;;;;;10.51;85.37;102420.38;5016545;28;20052;-74
2023/04/30 08:27:20;;;;;;;5.65;5.22;;;;;;;10.58;85.66;102423.75;5018302;28;20045;-73
2023/04/30 08:29:45;;;;;;;8.13;5.75;;;;;;;10.66;85.15;102431.47;5019647;28;20106;-74
2023/04/30 08:32:11;;;;;;;7.20;5.43;;;;;;;10.72;84.67;102426.16;5019126;28;20334;-74
2023/04/30 08:34:36;;;;;;;5.95;5.45;;;;;;;10.77;85.28;102419.09;5018595;28;20053;-74
2023/04/30 08:37:02;;;;;;;7.18;5.80;;;;;;;10.84;85.15;102431.22;5018077;28;20037;-74
2023/04/30 08:39:27;;;;;;;8.85;6.03;;;;;;;10.90;84.68;102425.84;5017960;28;20095;-73
2023/04/30 08:41:55;;;;;;;7.47;5.40;;;;;;;10.97;83.79;102425.75;5018130;28;20037;-74
2023/04/30 08:44:22;;;;;;;6.68;6.05;;;;;;;11.04;83.67;102422.13;5018758;28;20046;-74
2023/04/30 08:46:52;;;;;;;6.78;6.00;;;;;;;11.11;83.41;102419.38;5018167;28;20037;-74
2023/04/30 08:49:18;;;;;;;6.75;6.13;;;;;;;11.18;83.40;102428.00;5018703;28;20276;-74
2023/04/30 08:51:45;;;;;;;8.13;5.72;;;;;;;11.26;83.29;102431.34;5018675;28;20309;-74
2023/04/30 08:54:12;;;;;;;7.90;6.00;;;;;;;11.32;83.13;102427.75;5018412;28;20091;-74
2023/04/30 08:56:38;;;;;;;5.95;5.43;;;;;;;11.38;82.41;102432.88;5018937;28;20048;-74
2023/04/30 08:59:03;;;;;;;6.53;5.80;;;;;;;11.43;81.84;102427.56;4996637;28;20038;-74
2023/04/30 09:01:29;;;;;;;6.95;5.97;;;;;;;11.47;81.33;102427.44;5007185;28;20359;-74
2023/04/30 09:03:55;;;;;;;7.65;5.50;;;;;;;11.51;81.45;102413.41;5017022;28;20061;-74
2023/04/30 09:06:20;;;;;;;5.85;5.35;;;;;;;11.58;81.49;102419.38;5017143;28;20248;-74
2023/04/30 09:08:49;;;;;;;5.95;5.22;;;;;;;11.64;81.29;102427.16;5017442;28;20065;-74
2023/04/30 09:11:21;;;;;;;7.30;5.88;;;;;;;11.70;80.79;102423.53;5017420;28;20041;-74
2023/04/30 09:13:49;;;;;;;7.90;6.47;;;;;;;11.76;81.10;102423.41;5018203;28;20281;-74
2023/04/30 09:16:15;;;;;;;7.05;5.70;;;;;;;11.82;80.93;102417.16;5018801;28;20041;-73
2023/04/30 09:18:40;;;;;;;6.32;5.82;;;;;;;11.87;80.74;102418.78;5017166;28;20269;-74
2023/04/30 09:21:07;;;;;;;5.97;5.40;;;;;;;11.92;79.95;102416.09;5017009;28;20325;-74
2023/04/30 09:23:33;;;;;;;8.45;6.55;;;;;;;11.98;79.95;102412.47;5018538;28;20042;-73
2023/04/30 09:25:59;;;;;;;9.35;6.57;;;;;;;12.02;80.20;102416.75;5018998;28;20044;-73
2023/04/30 09:28:27;;;;;;;6.60;5.85;;;;;;;12.08;79.88;102414.03;5018333;28;20034;-74
2023/04/30 09:30:55;;;;;;;6.00;5.50;;;;;;;12.14;79.37;102411.25;5017229;28;20136;-74
2023/04/30 09:33:21;;;;;;;9.55;5.53;;;;;;;12.21;79.13;102414.63;5017483;28;20038;-73
2023/04/30 09:35:47;;;;;;;5.38;4.85;;;;;;;12.27;79.58;102415.31;5016966;28;20117;-73
2023/04/30 09:38:26;;;;;;;5.60;5.10;;;;;;;12.36;78.87;102409.00;5017610;28;20037;-73
2023/04/30 09:40:51;;;;;;;;;;;;;;;12.44;78.62;102414.06;5018103;28;20045;-73
2023/04/30 09:43:17;;;;;;;5.97;5.38;;;;;;;12.49;78.03;102420.09;5017853;28;20241;-73
2023/04/30 09:45:48;;;;;;;5.78;5.28;;;;;;;12.53;77.72;102421.72;5023953;28;20041;-73
2023/04/30 09:48:20;;;;;;;5.60;5.07;;;;;;;12.57;77.37;102417.25;4997961;28;20065;-73
2023/04/30 09:50:47;;;;;;;5.55;5.05;;;;;;;12.62;77.25;102415.41;5012643;28;20069;-73
2023/04/30 09:53:14;;;;;;;5.38;4.88;;;;;;;12.65;76.54;102413.56;5023781;28;20344;-73
2023/04/30 09:55:50;;;;;;;7.55;5.63;;;;;;;12.68;76.63;102410.88;5026417;28;20049;-73
2023/04/30 09:58:17;;;;;;;6.22;5.72;;;;;;;12.72;76.75;102411.66;4999713;28;20307;-73
2023/04/30 10:00:45;;;;;;;6.15;5.65;;;;;;;12.75;77.24;102402.81;5011457;28;20042;-73
2023/04/30 10:03:12;;;;;;;4.78;4.38;;;;;;;12.81;77.07;102405.31;5017002;28;20099;-73
2023/04/30 10:05:41;;;;;;;4.97;4.50;;;;;;;12.90;77.07;102405.09;5019086;28;20062;-73
2023/04/30 10:08:19;;;;;;;5.90;5.40;;;;;;;12.98;75.66;102410.13;5018626;28;20048;-73
2023/04/30 10:10:50;;;;;;;4.68;4.18;;;;;;;13.02;74.90;102396.88;5017472;28;20101;-73
2023/04/30 10:13:18;;;;;;;4.70;4.30;;;;;;;13.08;74.97;102395.84;5017581;28;20068;-73
2023/04/30 10:15:58;;;;;;;4.80;4.40;;;;;;;13.13;74.55;102395.72;5017012;28;20544;-73
2023/04/30 10:18:36;;;;;;;4.53;4.13;;;;;;;13.17;74.64;102400.88;5017108;28;20037;-73
2023/04/30 10:21:09;;;;;;;5.03;4.63;;;;;;;13.19;74.58;102395.56;5017436;28;20046;-73
2023/04/30 10:23:36;;;;;;;5.22;4.78;;;;;;;13.24;75.04;102399.81;5017331;28;20486;-73
2023/04/30 10:26:02;;;;;;;5.72;5.20;;;;;;;13.28;75.57;102394.44;5006817;28;20030;-74
2023/04/30 10:28:29;;;;;;;3.22;2.95;;;;;;;13.29;72.94;102397.03;4997868;28;20038;-74
2023/04/30 10:30:56;;;;;;;3.78;3.47;;;;;;;13.34;72.67;102389.91;5015276;28;20344;-73
2023/04/30 10:33:48;;;;;;;4.20;3.83;;;;;;;13.36;71.27;102388.09;5014959;28;20034;-74
2023/04/30 10:36:21;;;;;;;3.17;2.75;;;;;;;13.40;71.55;102384.47;5015653;28;20052;-74
2023/04/30 10:38:47;;;;;;;4.53;4.18;;;;;;;13.50;73.22;102384.19;5014879;28;20025;-73
2023/04/30 10:41:13;;;;;;;4.88;4.03;;;;;;;13.55;72.45;102379.69;5015513;28;20045;-74
2023/04/30 10:43:40;;;;;;;4.70;4.30;;;;;;;13.59;72.84;102379.56;5015279;28;20044;-74
2023/04/30 10:46:07;;;;;;;4.40;4.10;;;;;;;13.64;72.63;102376.78;5017705;28;20412;-74
2023/04/30 10:48:34;;;;;;;4.35;3.95;;;;;;;13.69;73.15;102368.75;5015199;28;20037;-73
2023/04/30 10:51:00;;;;;;;2.60;2.40;;;;;;;13.77;70.45;102370.25;5015394;28;20057;-73
2023/04/30 10:53:29;;;;;;;2.55;2.35;;;;;;;13.81;68.75;102355.22;5011287;28;20204;-75
2023/04/30 10:55:59;;;;;;;3.45;3.25;;;;;;;13.88;69.69;102361.16;5026433;28;20049;-74
2023/04/30 10:58:26;;;;;;;4.60;4.18;;;;;;;13.92;70.67;102354.91;5014439;28;20044;-74
2023/04/30 11:01:14;;;;;;;4.18;3.80;;;;;;;13.94;70.52;102342.56;5014298;28;20033;-74
2023/04/30 11:03:41;;;;;;;4.85;3.40;;;;;;;13.95;70.04;102347.78;5012430;28;20395;-75
2023/04/30 11:06:14;;;;;;;2.92;2.55;;;;;;;14.01;70.25;102346.72;5014776;28;20209;-74
2023/04/30 11:08:44;;;;;;;3.22;2.92;;;;;;;14.05;69.35;102342.22;5014986;28;20042;-74
2023/04/30 11:11:11;;;;;;;3.92;2.95;;;;;;;14.10;69.32;102342.91;5014650;28;20049;-74
2023/04/30 11:13:44;;;;;;;2.95;2.65;;;;;;;14.15;69.18;102336.63;5014547;28;20061;-74
2023/04/30 11:16:09;;;;;;;3.38;3.00;;;;;;;14.21;69.53;102327.66;5014727;28;20240;-75
2023/04/30 11:18:44;;;;;;;3.22;2.92;;;;;;;14.29;69.16;102322.97;5014834;28;20045;-74
2023/04/30 11:21:09;;;;;;;3.30;3.08;;;;;;;14.35;67.93;102330.69;5016979;28;20317;-75
2023/04/30 11:23:35;;;;;;;3.40;3.10;;;;;;;14.38;67.02;102325.31;5019026;28;20041;-75
2023/04/30 11:26:00;;;;;;;3.67;3.38;;;;;;;14.39;68.13;102321.78;5018699;28;20460;-75
2023/04/30 11:28:27;;;;;;;3.10;2.90;;;;;;;14.40;68.44;102317.34;5017686;28;20109;-75
2023/04/30 11:30:57;;;;;;;3.20;2.90;;;;;;;14.47;68.85;102323.28;5018588;28;20088;-74
2023/04/30 11:33:25;;;;;;;3.10;2.80;;;;;;;14.52;68.51;102311.69;5018527;28;20042;-75
2023/04/30 11:35:52;;;;;;;3.55;3.00;;;;;;;14.58;68.96;102311.50;5017283;28;20240;-75